Home > Products > Valid Products > MTR

000
SAUS43 KBIS 011954
MTRN60
METAR KN60 011952Z AUTO 19011KT 31/14 A2981 RMK AO1 SLP085 T03060139





000
SAUS43 KBIS 011853
MTRN60
METAR KN60 011852Z AUTO 16008KT 29/14 A2982 RMK AO1 SLP088 T02940144





000
SAUS43 KBIS 011754
MTRN60
METAR KN60 011752Z AUTO 16008KT 27/14 A2984 RMK AO1 SLP095 T02670144
10267 20117 58006





000
SAUS43 KBIS 011653
MTRN60
METAR KN60 011652Z AUTO VRB04KT 24/14 A2985 RMK AO1 SLP101 T02440139





000
SAUS43 KBIS 011554
MTRN60
METAR KN60 011552Z AUTO 18006KT 23/14 A2985 RMK AO1 SLP103 T02280139





000
SAUS43 KBIS 011454
MTRN60
METAR KN60 011452Z AUTO 15004KT 21/13 A2985 RMK AO1 SLP104 T02060133
58002





000
SAUS43 KBIS 011454
MTRN60
METAR KN60 011452Z AUTO 15004KT 21/13 A2985 RMK AO1 SLP104 T02060133
58002





000
SAUS43 KBIS 011354
MTRN60
METAR KN60 011352Z AUTO 19004KT 17/13 A2987 RMK AO1 SLP111 T01720128





000
SAUS43 KBIS 011254
MTRN60
METAR KN60 011252Z AUTO 00000KT 13/10 A2987 RMK AO1 SLP112 T01280100





000
SAUS43 KBIS 011254
MTRN60
METAR KN60 011252Z AUTO 00000KT 13/10 A2987 RMK AO1 SLP112 T01280100





000
SAUS43 KBIS 011153
MTRN60
METAR KN60 011152Z AUTO 00000KT 12/09 A2986 RMK AO1 SLP108 T01170094
10150 20089 51002





000
SAUS43 KBIS 011153
MTRN60
METAR KN60 011152Z AUTO 00000KT 12/09 A2986 RMK AO1 SLP108 T01170094
10150 20089 51002





000
SAUS43 KBIS 011053
MTRN60
METAR KN60 011052Z AUTO 00000KT 10/08 A2986 RMK AO1 SLP108 T01000078





000
SAUS43 KBIS 010954
MTRN60
METAR KN60 010952Z AUTO 00000KT 12/08 A2986 RMK AO1 SLP107 T01170083





000
SAUS43 KBIS 010854
MTRN60
METAR KN60 010852Z AUTO 00000KT 12/08 A2985 RMK AO1 SLP106 T01170078
58005





000
SAUS43 KBIS 010754
MTRN60
METAR KN60 010752Z AUTO 00000KT 14/08 A2986 RMK AO1 SLP104 T01390083





000
SAUS43 KBIS 010653
MTRN60
METAR KN60 010652Z AUTO 20004KT 14/10 A2987 RMK AO1 SLP110 T01390100





000
SAUS43 KBIS 010653
MTRN60
METAR KN60 010652Z AUTO 20004KT 14/10 A2987 RMK AO1 SLP110 T01390100





000
SAUS43 KBIS 010554
MTRN60
METAR KN60 010552Z AUTO 00000KT 15/10 A2987 RMK AO1 SLP110 T01500100
10244 20133 402560133 55001





000
SAUS43 KBIS 010554
MTRN60
METAR KN60 010552Z AUTO 00000KT 15/10 A2987 RMK AO1 SLP110 T01500100
10244 20133 402560133 55001





000
SAUS43 KBIS 010454
MTRN60
METAR KN60 010452Z AUTO 00000KT 16/12 A2987 RMK AO1 SLP109 T01610117





000
SAUS43 KBIS 010354
MTRN60
METAR KN60 010352Z AUTO 00000KT 16/10 A2987 RMK AO1 SLP112 T01560100





000
SAUS43 KBIS 010253
MTRN60
METAR KN60 010252Z AUTO 00000KT 18/11 A2987 RMK AO1 SLP111 T01780106
53002





000
SAUS43 KBIS 010154
MTRN60
METAR KN60 010152Z AUTO 00000KT 19/10 A2987 RMK AO1 SLP110 T01890100





000
SAUS43 KBIS 010154
MTRN60
METAR KN60 010152Z AUTO 00000KT 19/10 A2987 RMK AO1 SLP110 T01890100





000
SAUS43 KBIS 010053
MTRN60
METAR KN60 010052Z AUTO 23003KT 22/08 A2986 RMK AO1 SLP106 T02170083





000
SAUS43 KBIS 312354
MTRN60
METAR KN60 312352Z AUTO 25010KT 24/06 A2987 RMK AO1 SLP106 T02440061
10256 20228 53000





000
SAUS43 KBIS 312253
MTRN60
METAR KN60 312252Z AUTO 25013KT 25/07 A2986 RMK AO1 SLP104 T02500067





000
SAUS43 KBIS 312253
MTRN60
METAR KN60 312252Z AUTO 25013KT 25/07 A2986 RMK AO1 SLP104 T02500067





000
SAUS43 KBIS 312154
MTRN60
METAR KN60 312152Z AUTO 27014KT 25/07 A2987 RMK AO1 SLP105 T02500067





000
SAUS43 KBIS 312053
MTRN60
METAR KN60 312052Z AUTO 25014G19KT 25/07 A2987 RMK AO1 SLP105
T02500067 58005





000
SAUS43 KBIS 312053
MTRN60
METAR KN60 312052Z AUTO 25014G19KT 25/07 A2987 RMK AO1 SLP105
T02500067 58005





000
SAUS43 KBIS 311954
MTRN60
METAR KN60 311952Z AUTO 28016G22KT 24/06 A2987 RMK AO1 SLP106
T02440061





000
SAUS43 KBIS 311954
MTRN60
METAR KN60 311952Z AUTO 28016G22KT 24/06 A2987 RMK AO1 SLP106
T02440061





000
SAUS43 KBIS 311854
MTRN60
METAR KN60 311852Z AUTO 28017G22KT 24/05 A2988 RMK AO1 SLP110
T02390050





000
SAUS43 KBIS 311854
MTRN60
METAR KN60 311852Z AUTO 28017G22KT 24/05 A2988 RMK AO1 SLP110
T02390050





000
SAUS43 KBIS 311754
MTRN60
METAR KN60 311752Z AUTO 28015G21KT 23/08 A2988 RMK AO1 PK WND
28026/1732 SLP111 T02280083 10228 20167 51008





000
SAUS43 KBIS 311754
MTRN60
METAR KN60 311752Z AUTO 28015G21KT 23/08 A2988 RMK AO1 PK WND
28026/1732 SLP111 T02280083 10228 20167 51008





000
SAUS43 KBIS 311653
MTRN60
METAR KN60 311652Z AUTO 30014G22KT 22/09 A2988 RMK AO1 PK WND
31027/1631 SLP111 T02170094





000
SAUS43 KBIS 311653
MTRN60
METAR KN60 311652Z AUTO 30014G22KT 22/09 A2988 RMK AO1 PK WND
31027/1631 SLP111 T02170094





000
SAUS43 KBIS 311554
MTRN60
METAR KN60 311552Z AUTO 29015G20KT 21/10 A2987 RMK AO1 SLP108
T02060100





000
SAUS43 KBIS 311454
MTRN60
METAR KN60 311452Z AUTO 31012KT 20/13 A2985 RMK AO1 SLP101 T02000128
51029





000
SAUS43 KBIS 311454
MTRN60
METAR KN60 311452Z AUTO 31012KT 20/13 A2985 RMK AO1 SLP101 T02000128
51029





000
SAUS43 KBIS 311354
MTRN60
METAR KN60 311352Z AUTO 35005KT 18/14 A2983 RMK AO1 SLP095 T01780139





000
SAUS43 KBIS 311253
MTRN60
METAR KN60 311252Z AUTO 33014KT 17/14 A2980 RMK AO1 SLP085 T01720139





000
SAUS43 KBIS 311253
MTRN60
METAR KN60 311252Z AUTO 33014KT 17/14 A2980 RMK AO1 SLP085 T01720139





000
SAUS43 KBIS 311153
MTRN60
METAR KN60 311152Z AUTO 29006KT 18/16 A2976 RMK AO1 SLP068 P0001
60003 70003 T01780156 10206 20167 51043





000
SAUS43 KBIS 311153
MTRN60
METAR KN60 311152Z AUTO 29006KT 18/16 A2976 RMK AO1 SLP068 P0001
60003 70003 T01780156 10206 20167 51043





000
SAUS43 KBIS 311053
MTRN60
METAR KN60 311052Z AUTO 00000KT 17/14 A2971 RMK AO1 SLP048 T01720144





000
SAUS43 KBIS 311053
MTRN60
METAR KN60 311052Z AUTO 00000KT 17/14 A2971 RMK AO1 SLP048 T01720144





000
SAUS43 KBIS 310954
MTRN60
METAR KN60 310952Z AUTO 36007KT 17/14 A2970 RMK AO1 SLP043 P0002
T01720139





000
SAUS43 KBIS 310954
MTRN60
METAR KN60 310952Z AUTO 36007KT 17/14 A2970 RMK AO1 SLP043 P0002
T01720139





000
SAUS43 KBIS 310854
MTRN60
METAR KN60 310852Z AUTO 35009KT 19/12 A2963 RMK AO1 SLP019 T01940122
58013





000
SAUS43 KBIS 310754
MTRN60
METAR KN60 310752Z AUTO 35012KT 19/12 A2968 RMK AO1 SLP038 T01890122





000
SAUS43 KBIS 310754
MTRN60
METAR KN60 310752Z AUTO 35012KT 19/12 A2968 RMK AO1 SLP038 T01890122





000
SAUS43 KBIS 310653
MTRN60
METAR KN60 310652Z AUTO 03005KT 18/14 A2969 RMK AO1 SLP039 T01780139





000
SAUS43 KBIS 310653
MTRN60
METAR KN60 310652Z AUTO 03005KT 18/14 A2969 RMK AO1 SLP039 T01780139





000
SAUS43 KBIS 310554
MTRN60
METAR KN60 310552Z AUTO 34009KT 18/12 A2967 RMK AO1 SLP035 T01830122
10283 20178 403440156 55004





000
SAUS43 KBIS 310554
MTRN60
METAR KN60 310552Z AUTO 34009KT 18/12 A2967 RMK AO1 SLP035 T01830122
10283 20178 403440156 55004





000
SAUS43 KBIS 310453
MTRN60
METAR KN60 310452Z AUTO 35005KT 19/13 A2966 RMK AO1 SLP034 T01890133





000
SAUS43 KBIS 310453
MTRN60
METAR KN60 310452Z AUTO 35005KT 19/13 A2966 RMK AO1 SLP034 T01890133





000
SAUS43 KBIS 310354
MTRN60
METAR KN60 310352Z AUTO 36004KT 21/13 A2967 RMK AO1 SLP037 T02110133





000
SAUS43 KBIS 310253
MTRN60
METAR KN60 310252Z AUTO 33008KT 22/14 A2968 RMK AO1 SLP040 T02170144
53002





000
SAUS43 KBIS 310154
MTRN60
METAR KN60 310152Z AUTO 33008KT 22/14 A2968 RMK AO1 SLP040 T02170144





000
SAUS43 KBIS 310154
MTRN60
METAR KN60 310152Z AUTO 33008KT 22/14 A2968 RMK AO1 SLP040 T02170144





000
SAUS43 KBIS 310053
MTRN60
METAR KN60 310052Z AUTO 35007KT 25/14 A2967 RMK AO1 SLP039 T02500144





000
SAUS43 KBIS 310053
MTRN60
METAR KN60 310052Z AUTO 35007KT 25/14 A2967 RMK AO1 SLP039 T02500144





000
SAUS43 KBIS 302354
MTRN60
METAR KN60 302352Z AUTO 34011KT 28/14 A2967 RMK AO1 SLP038 T02830144
10344 20283 53006





000
SAUS43 KBIS 302253
MTRN60
METAR KN60 302252Z AUTO 31010G21KT 32/12 A2967 RMK AO1 SLP036
T03220122





000
SAUS43 KBIS 302153
MTRN60
METAR KN60 302152Z AUTO 31008KT 32/12 A2965 RMK AO1 SLP028 T03220117





000
SAUS43 KBIS 302153
MTRN60
METAR KN60 302152Z AUTO 31008KT 32/12 A2965 RMK AO1 SLP028 T03220117





000
SAUS43 KBIS 302054
MTRN60
METAR KN60 302052Z AUTO 26007KT 33/13 A2966 RMK AO1 SLP029 T03280128
56002





000
SAUS43 KBIS 301953
MTRN60
METAR KN60 301952Z AUTO 27010G20KT 32/12 A2967 RMK AO1 WSHFT 1926
SLP033 T03220122





000
SAUS43 KBIS 301953
MTRN60
METAR KN60 301952Z AUTO 27010G20KT 32/12 A2967 RMK AO1 WSHFT 1926
SLP033 T03220122





000
SAUS43 KBIS 301854
MTRN60
METAR KN60 301852Z AUTO 18010KT 32/14 A2965 RMK AO1 SLP025 T03220144





000
SAUS43 KBIS 301754
MTRN60
METAR KN60 301752Z AUTO 17012KT 31/14 A2966 RMK AO1 SLP029 T03060144
10306 20167 58007





000
SAUS43 KBIS 301754
MTRN60
METAR KN60 301752Z AUTO 17012KT 31/14 A2966 RMK AO1 SLP029 T03060144
10306 20167 58007





000
SAUS43 KBIS 301653
MTRN60
METAR KN60 301652Z AUTO 17006KT 28/14 A2968 RMK AO1 SLP037 T02780144





000
SAUS43 KBIS 301554
MTRN60
METAR KN60 301552Z AUTO 18008KT 26/14 A2969 RMK AO1 SLP039 T02560144





000
SAUS43 KBIS 301454
MTRN60
METAR KN60 301452Z AUTO 16008KT 24/15 A2969 RMK AO1 SLP040 T02390150
58008





000
SAUS43 KBIS 301454
MTRN60
METAR KN60 301452Z AUTO 16008KT 24/15 A2969 RMK AO1 SLP040 T02390150
58008





000
SAUS43 KBIS 301354
MTRN60
METAR KN60 301352Z AUTO 13005KT 21/16 A2970 RMK AO1 SLP045 T02110161





000
SAUS43 KBIS 301354
MTRN60
METAR KN60 301352Z AUTO 13005KT 21/16 A2970 RMK AO1 SLP045 T02110161





000
SAUS43 KBIS 301253
MTRN60
METAR KN60 301252Z AUTO 00000KT 19/16 A2971 RMK AO1 SLP050 T01890161





000
SAUS43 KBIS 301253
MTRN60
METAR KN60 301252Z AUTO 00000KT 19/16 A2971 RMK AO1 SLP050 T01890161





000
SAUS43 KBIS 301153
MTRN60
METAR KN60 301152Z AUTO 14006KT 17/14 A2971 RMK AO1 SLP050 T01670144
10228 20156 56010





000
SAUS43 KBIS 301153
MTRN60
METAR KN60 301152Z AUTO 14006KT 17/14 A2971 RMK AO1 SLP050 T01670144
10228 20156 56010





000
SAUS43 KBIS 301054
MTRN60
METAR KN60 301052Z AUTO 12004KT 16/13 A2972 RMK AO1 SLP050 T01560133





000
SAUS43 KBIS 301054
MTRN60
METAR KN60 301052Z AUTO 12004KT 16/13 A2972 RMK AO1 SLP050 T01560133





000
SAUS43 KBIS 300953
MTRN60
METAR KN60 300952Z AUTO 11003KT 18/15 A2973 RMK AO1 SLP054 T01780150





000
SAUS43 KBIS 300854
MTRN60
METAR KN60 300852Z AUTO 11004KT 19/16 A2974 RMK AO1 SLP057 T01940161
58011





000
SAUS43 KBIS 300854
MTRN60
METAR KN60 300852Z AUTO 11004KT 19/16 A2974 RMK AO1 SLP057 T01940161
58011





000
SAUS43 KBIS 300753
MTRN60
METAR KN60 300752Z AUTO 18004KT 20/17 A2975 RMK AO1 SLP061 T02000167





000
SAUS43 KBIS 300654
MTRN60
METAR KN60 300652Z AUTO 20003KT 21/17 A2977 RMK AO1 SLP069 T02060167





000
SAUS43 KBIS 300554
MTRN60
METAR KN60 300552Z AUTO 16003KT 23/18 A2978 RMK AO1 SLP070 T02280178
10289 20228 403440117 56007





000
SAUS43 KBIS 300554
MTRN60
METAR KN60 300552Z AUTO 16003KT 23/18 A2978 RMK AO1 SLP070 T02280178
10289 20228 403440117 56007





000
SAUS43 KBIS 300454
MTRN60
METAR KN60 300452Z AUTO 18006KT 24/17 A2978 RMK AO1 SLP071 T02390172





000
SAUS43 KBIS 300354
MTRN60
METAR KN60 300352Z AUTO 17007KT 25/17 A2978 RMK AO1 SLP074 T02500172





000
SAUS43 KBIS 300354
MTRN60
METAR KN60 300352Z AUTO 17007KT 25/17 A2978 RMK AO1 SLP074 T02500172





000
SAUS43 KBIS 300253
MTRN60
METAR KN60 300252Z AUTO 16007KT 25/17 A2980 RMK AO1 SLP081 T02500167
55003





000
SAUS43 KBIS 300154
MTRN60
METAR KN60 300152Z AUTO 16006KT 24/16 A2979 RMK AO1 SLP082 T02440161





000
SAUS43 KBIS 300053
MTRN60
METAR KN60 300052Z AUTO 15006KT 27/16 A2979 RMK AO1 SLP083 T02670156





000
SAUS43 KBIS 292354
MTRN60
METAR KN60 292352Z AUTO 17006KT 29/14 A2981 RMK AO1 SLP085 T02890139
10344 20278 56012





000
SAUS43 KBIS 292354
MTRN60
METAR KN60 292352Z AUTO 17006KT 29/14 A2981 RMK AO1 SLP085 T02890139
10344 20278 56012





000
SAUS43 KBIS 292253
MTRN60
METAR KN60 292252Z AUTO 16008KT 33/12 A2982 RMK AO1 SLP087 T03330122





000
SAUS43 KBIS 292154
MTRN60
METAR KN60 292152Z AUTO 18010KT 34/12 A2983 RMK AO1 SLP091 T03390122





000
SAUS43 KBIS 292053
MTRN60
METAR KN60 292052Z AUTO 19012KT 34/13 A2985 RMK AO1 SLP095 T03390128
56021





000
SAUS43 KBIS 292053
MTRN60
METAR KN60 292052Z AUTO 19012KT 34/13 A2985 RMK AO1 SLP095 T03390128
56021





    US Dept of Commerce
    National Oceanic and Atmospheric Administration
    National Weather Service
    1325 East West Highway
    Silver Spring, MD 20910
    Page Author: NWS Internet Services Team
Disclaimer
Information Quality
Credits
Glossary
Privacy Policy
Freedom of Information Act (FOIA)
About Us
Career Opportunities